Terminal Aerodrome Forecast
Issued by NWS Amarillo, TX

Home | Current Version | Previous Version | Text Only | Print | Product List | Glossary On
Versions: 1 2 3 4 5 6 7 8 9 10 11 12 13 14 15 16 17 18 19 20 21 22 23 24 25
000
FTUS44 KAMA 291100
TAFAMA
TAF
KAMA 291138Z 2912/3012 27011KT P6SM BKN100
     FM291500 33014KT P6SM BKN100
     FM292100 02014KT P6SM SCT070 BKN200
     FM300600 36016KT P6SM BKN035
     FM300900 03011KT P6SM BKN010=

USA.gov is the U.S. government's official web portal to all federal, state and local government web resources and services.